createdAt,value
2023-03-15T00:02:08.255Z,73.60
2023-03-15T00:04:37.682Z,73.34
2023-03-15T00:07:07.540Z,73.59
2023-03-15T00:09:36.748Z,74.12
2023-03-15T00:12:06.335Z,74.71
2023-03-15T00:14:35.296Z,74.97
2023-03-15T00:17:04.587Z,74.83
2023-03-15T00:19:33.903Z,74.49
2023-03-15T00:22:03.133Z,74.71
2023-03-15T00:24:31.824Z,75.22
2023-03-15T00:27:00.710Z,75.52
2023-03-15T00:29:29.888Z,75.33
2023-03-15T00:31:59.752Z,75.32
2023-03-15T00:34:29.124Z,75.76
2023-03-15T00:36:58.298Z,75.82
2023-03-15T00:39:27.631Z,75.34
2023-03-15T00:41:59.842Z,74.80
2023-03-15T00:44:29.486Z,74.98
2023-03-15T00:46:58.500Z,74.94
2023-03-15T00:49:27.559Z,75.03
2023-03-15T00:51:56.464Z,74.98
2023-03-15T00:54:25.551Z,74.79
2023-03-15T00:56:54.929Z,74.90
2023-03-15T00:59:23.945Z,75.07
2023-03-15T01:01:53.021Z,74.90
2023-03-15T01:04:21.924Z,74.47
2023-03-15T01:06:50.856Z,74.53
2023-03-15T01:09:19.983Z,74.61
2023-03-15T01:11:48.792Z,74.59
2023-03-15T01:14:19.392Z,74.80
2023-03-15T01:16:48.504Z,75.31
2023-03-15T01:19:17.847Z,75.77
2023-03-15T01:21:48.323Z,76.48
2023-03-15T01:24:17.487Z,76.71
2023-03-15T01:26:46.911Z,76.52
2023-03-15T01:29:18.471Z,75.84
2023-03-15T01:31:47.443Z,75.58
2023-03-15T01:34:16.425Z,75.66
2023-03-15T01:36:45.179Z,75.20
2023-03-15T01:39:14.163Z,74.98
2023-03-15T01:41:43.610Z,74.77
2023-03-15T01:44:17.680Z,75.20
2023-03-15T01:46:46.992Z,75.47
2023-03-15T01:49:31.918Z,75.60
2023-03-15T01:52:13.351Z,75.28
2023-03-15T01:54:47.712Z,74.56
2023-03-15T01:57:23.576Z,74.56
2023-03-15T02:00:13.987Z,74.64
2023-03-15T02:02:48.542Z,74.87
2023-03-15T02:05:24.931Z,74.71
2023-03-15T02:07:54.921Z,75.30
2023-03-15T02:10:43.132Z,75.93
2023-03-15T02:13:17.516Z,76.24
2023-03-15T02:15:49.524Z,76.29
2023-03-15T02:18:18.238Z,76.26
2023-03-15T02:21:09.144Z,76.71
2023-03-15T02:23:38.140Z,77.09
2023-03-15T02:26:49.129Z,77.46
2023-03-15T02:29:18.023Z,77.39
2023-03-15T02:31:46.903Z,77.42
2023-03-15T02:34:16.118Z,77.37
2023-03-15T02:36:44.991Z,77.40
2023-03-15T02:39:16.806Z,76.86
2023-03-15T02:41:57.770Z,76.52
2023-03-15T02:44:36.544Z,76.42
2023-03-15T02:47:09.899Z,76.39
2023-03-15T02:49:43.849Z,76.01
2023-03-15T02:52:14.391Z,75.67
2023-03-15T02:54:46.150Z,75.64
2023-03-15T02:57:17.273Z,75.38
2023-03-15T02:59:46.215Z,75.04
2023-03-15T03:02:15.738Z,74.69
2023-03-15T03:04:44.591Z,75.08
2023-03-15T03:07:13.607Z,75.15
2023-03-15T03:09:42.978Z,74.98
2023-03-15T03:12:11.851Z,74.14
2023-03-15T03:14:43.733Z,73.71
2023-03-15T03:17:12.873Z,73.51
2023-03-15T03:19:41.617Z,73.05
2023-03-15T03:22:13.592Z,72.52
2023-03-15T03:24:46.364Z,72.53
2023-03-15T03:27:16.189Z,72.86
2023-03-15T03:29:45.249Z,72.67
2023-03-15T03:32:14.278Z,72.46
2023-03-15T03:34:48.981Z,72.28
2023-03-15T03:37:22.123Z,72.53
2023-03-15T03:39:53.303Z,72.46
2023-03-15T03:42:22.270Z,72.71
2023-03-15T03:44:51.468Z,72.64
2023-03-15T03:47:20.917Z,72.70
2023-03-15T03:49:49.812Z,72.78
2023-03-15T03:52:18.807Z,72.79
2023-03-15T03:54:47.945Z,72.31
2023-03-15T03:57:16.985Z,72.05
2023-03-15T03:59:45.954Z,72.50
2023-03-15T04:02:15.248Z,72.87
2023-03-15T04:04:44.340Z,73.20
2023-03-15T04:07:14.519Z,73.09
2023-03-15T04:09:44.289Z,73.34
2023-03-15T04:12:13.643Z,73.59
2023-03-15T04:14:42.522Z,73.76
2023-03-15T04:17:11.976Z,73.57
2023-03-15T04:19:40.870Z,73.57
2023-03-15T04:22:09.680Z,73.45
2023-03-15T04:24:40.160Z,73.78
2023-03-15T04:27:09.345Z,73.93
2023-03-15T04:29:38.022Z,74.12
2023-03-15T04:32:07.156Z,74.31
2023-03-15T04:34:39.356Z,74.71
2023-03-15T04:37:08.151Z,74.59
2023-03-15T04:39:36.889Z,74.32
2023-03-15T04:42:05.789Z,74.47
2023-03-15T04:44:34.655Z,74.72
2023-03-15T04:47:03.656Z,74.91
2023-03-15T04:49:32.384Z,75.19
2023-03-15T04:52:01.383Z,75.30
2023-03-15T04:54:30.964Z,75.41
2023-03-15T04:56:59.836Z,75.82
2023-03-15T04:59:28.631Z,75.94
2023-03-15T05:01:57.731Z,75.86
2023-03-15T05:04:26.191Z,75.45
2023-03-15T05:06:55.009Z,75.24
2023-03-15T05:09:23.988Z,74.64
2023-03-15T05:11:52.556Z,74.28
2023-03-15T05:14:21.394Z,74.18
2023-03-15T05:16:52.744Z,74.11
2023-03-15T05:19:22.312Z,74.10
2023-03-15T05:21:51.185Z,74.65
2023-03-15T05:24:19.949Z,74.69
2023-03-15T05:26:48.661Z,74.91
2023-03-15T05:29:17.586Z,75.39
2023-03-15T05:31:46.572Z,75.74
2023-03-15T05:34:15.873Z,76.11
2023-03-15T05:36:44.980Z,76.11
2023-03-15T05:39:17.124Z,76.07
2023-03-15T05:41:45.869Z,75.71
2023-03-15T05:44:14.872Z,75.50
2023-03-15T05:46:43.862Z,75.33
2023-03-15T05:49:12.645Z,74.84
2023-03-15T05:51:42.041Z,74.95
2023-03-15T05:54:11.511Z,75.30
2023-03-15T05:56:40.808Z,75.68
2023-03-15T05:59:09.661Z,75.70
2023-03-15T06:01:38.887Z,75.70
2023-03-15T06:04:07.993Z,75.68
2023-03-15T06:06:36.950Z,75.40
2023-03-15T06:09:06.217Z,73.79
2023-03-15T06:11:35.425Z,72.57
2023-03-15T06:14:05.092Z,72.04
2023-03-15T06:16:34.562Z,71.53
2023-03-15T06:19:04.181Z,71.56
2023-03-15T06:21:33.597Z,71.90
2023-03-15T06:24:02.805Z,72.23
2023-03-15T06:26:32.125Z,72.74
2023-03-15T06:29:01.423Z,72.56
2023-03-15T06:31:30.758Z,72.51
2023-03-15T06:34:00.537Z,70.28
2023-03-15T06:36:29.818Z,68.66
2023-03-15T06:38:59.137Z,67.31
2023-03-15T06:41:28.588Z,64.65
2023-03-15T06:43:58.231Z,62.15
2023-03-15T06:46:27.898Z,61.14
2023-03-15T06:48:57.137Z,58.66
2023-03-15T06:51:26.085Z,58.11
2023-03-15T06:53:55.225Z,57.33
2023-03-15T06:56:24.525Z,57.41
2023-03-15T06:58:53.809Z,56.51
2023-03-15T07:01:23.130Z,56.05
2023-03-15T07:03:52.506Z,54.65
2023-03-15T07:06:21.637Z,52.64
2023-03-15T07:08:50.533Z,50.45
2023-03-15T07:11:19.605Z,49.19
2023-03-15T07:13:48.447Z,47.45
2023-03-15T07:16:17.538Z,45.66
2023-03-15T07:18:46.631Z,44.16
2023-03-15T07:21:15.841Z,42.72
2023-03-15T07:23:45.024Z,40.96
2023-03-15T07:26:13.987Z,39.86
2023-03-15T07:28:45.406Z,38.95
2023-03-15T07:31:15.252Z,38.60
2023-03-15T07:33:44.676Z,37.37
2023-03-15T07:36:14.684Z,36.44
2023-03-15T07:38:43.835Z,36.00
2023-03-15T07:41:13.404Z,35.35
2023-03-15T07:43:43.468Z,35.34
2023-03-15T07:46:12.829Z,35.24
2023-03-15T07:48:42.021Z,35.47
2023-03-15T07:51:11.023Z,35.25
2023-03-15T07:53:40.288Z,34.97
2023-03-15T07:56:09.929Z,36.44
2023-03-15T07:58:38.871Z,37.91
2023-03-15T08:01:08.105Z,39.67
2023-03-15T08:03:37.148Z,40.22
2023-03-15T08:06:06.379Z,39.07
2023-03-15T08:08:35.718Z,39.38
2023-03-15T08:11:07.623Z,40.74
2023-03-15T08:13:37.163Z,40.49
2023-03-15T08:16:06.421Z,40.11
2023-03-15T08:18:35.806Z,38.09
2023-03-15T08:21:05.052Z,36.36
2023-03-15T08:23:34.416Z,33.46
2023-03-15T08:26:04.103Z,31.44
2023-03-15T08:28:33.744Z,28.74
2023-03-15T08:31:07.559Z,27.04
2023-03-15T08:33:37.188Z,26.32
2023-03-15T08:36:07.399Z,26.64
2023-03-15T08:38:36.554Z,26.12
2023-03-15T08:41:05.698Z,25.73
2023-03-15T08:43:34.878Z,25.56
2023-03-15T08:46:04.462Z,25.85
2023-03-15T08:48:33.984Z,25.18
2023-03-15T08:51:05.455Z,24.92
2023-03-15T08:53:34.410Z,24.33
2023-03-15T08:56:03.574Z,23.79
2023-03-15T08:58:32.700Z,23.17
2023-03-15T09:01:02.210Z,22.86
2023-03-15T09:03:33.301Z,22.56
2023-03-15T09:06:03.095Z,22.36
2023-03-15T09:08:33.865Z,22.07
2023-03-15T09:11:03.065Z,21.31
2023-03-15T09:13:32.264Z,20.78
2023-03-15T09:16:01.566Z,20.85
2023-03-15T09:18:31.420Z,20.41
2023-03-15T09:21:00.483Z,20.27
2023-03-15T09:23:29.900Z,20.76
2023-03-15T09:25:59.165Z,20.75
2023-03-15T09:28:28.864Z,20.30
2023-03-15T09:31:00.222Z,19.95
2023-03-15T09:33:29.623Z,19.97
2023-03-15T09:35:58.814Z,20.11
2023-03-15T09:38:28.149Z,21.49
2023-03-15T09:41:00.788Z,21.63
2023-03-15T09:43:42.346Z,21.83
2023-03-15T09:46:42.601Z,21.79
2023-03-15T09:49:22.876Z,24.16
2023-03-15T09:52:15.576Z,23.50
2023-03-15T09:55:11.728Z,24.04
2023-03-15T09:57:47.973Z,24.39
2023-03-15T10:00:34.133Z,23.23
2023-03-15T10:03:10.519Z,22.97
2023-03-15T10:05:47.420Z,21.87
2023-03-15T10:08:20.742Z,21.30
2023-03-15T10:10:52.833Z,20.84
2023-03-15T10:13:34.565Z,21.38
2023-03-15T10:16:10.560Z,21.49
2023-03-15T10:18:46.270Z,20.45
2023-03-15T10:21:49.368Z,20.94
2023-03-15T10:24:32.668Z,21.78
2023-03-15T10:27:16.686Z,22.12
2023-03-15T10:29:47.822Z,22.02
2023-03-15T10:32:19.909Z,21.91
2023-03-15T10:34:52.737Z,21.39
2023-03-15T10:37:25.711Z,20.51
2023-03-15T10:39:59.601Z,20.06
2023-03-15T10:42:34.286Z,19.94
2023-03-15T10:45:34.295Z,20.04
2023-03-15T10:48:03.894Z,21.93
2023-03-15T10:50:35.618Z,22.30
2023-03-15T10:53:18.464Z,23.52
2023-03-15T10:55:47.485Z,25.01
2023-03-15T10:58:31.864Z,25.93
2023-03-15T11:01:10.465Z,24.73
2023-03-15T11:03:41.750Z,23.08
2023-03-15T11:06:27.815Z,22.28
2023-03-15T11:09:19.647Z,21.04
2023-03-15T11:12:03.995Z,20.26
2023-03-15T11:14:44.298Z,20.08
2023-03-15T11:17:23.022Z,20.56
2023-03-15T11:20:00.195Z,20.80
2023-03-15T11:22:31.004Z,21.97
2023-03-15T11:25:00.595Z,22.87
2023-03-15T11:27:30.253Z,24.04
2023-03-15T11:30:02.110Z,24.86
2023-03-15T11:32:33.588Z,26.30
2023-03-15T11:35:07.947Z,28.48
2023-03-15T11:38:14.621Z,33.93
2023-03-15T11:40:50.453Z,36.06
2023-03-15T11:43:26.274Z,38.22
2023-03-15T11:45:59.521Z,39.39
2023-03-15T11:48:49.317Z,41.17
2023-03-15T11:51:18.884Z,42.99
2023-03-15T11:54:04.421Z,41.76
2023-03-15T11:56:55.594Z,40.42
2023-03-15T11:59:33.334Z,38.17
2023-03-15T12:02:14.601Z,35.16
2023-03-15T12:04:51.310Z,35.77
2023-03-15T12:07:20.535Z,37.75
2023-03-15T12:10:05.530Z,37.10
2023-03-15T12:12:37.374Z,37.27
2023-03-15T12:15:15.473Z,35.76
2023-03-15T12:17:44.488Z,32.91
2023-03-15T12:20:18.632Z,31.14
2023-03-15T12:23:15.621Z,28.14
2023-03-15T12:26:05.682Z,27.13
2023-03-15T12:29:04.476Z,28.19
2023-03-15T12:31:53.130Z,29.41
2023-03-15T12:34:37.759Z,30.36
2023-03-15T12:37:18.331Z,29.94
2023-03-15T12:39:59.583Z,31.05
2023-03-15T12:42:53.112Z,31.36
2023-03-15T12:45:27.989Z,32.25
2023-03-15T12:47:59.676Z,31.33
2023-03-15T12:50:48.443Z,32.22
2023-03-15T12:53:40.540Z,31.97
2023-03-15T12:56:33.439Z,32.46
2023-03-15T12:59:58.778Z,32.44
2023-03-15T13:02:44.618Z,32.83
2023-03-15T13:05:23.734Z,34.43
2023-03-15T13:07:52.891Z,35.21
2023-03-15T13:10:33.620Z,34.99
2023-03-15T13:13:31.219Z,35.11
2023-03-15T13:16:20.407Z,35.68
2023-03-15T13:19:06.921Z,34.22
2023-03-15T13:21:43.834Z,32.10
2023-03-15T13:24:24.668Z,31.17
2023-03-15T13:27:35.850Z,29.21
2023-03-15T13:30:31.658Z,29.25
2023-03-15T13:33:19.267Z,30.12
2023-03-15T13:35:56.650Z,30.63
2023-03-15T13:38:32.660Z,30.34
2023-03-15T13:41:05.183Z,30.78
2023-03-15T13:43:38.374Z,31.11
2023-03-15T13:46:08.924Z,30.17
2023-03-15T13:48:44.380Z,29.16
2023-03-15T13:51:31.098Z,28.79
2023-03-15T13:54:15.710Z,28.10
2023-03-15T13:56:56.689Z,26.71
2023-03-15T13:59:33.348Z,25.90
2023-03-15T14:02:06.700Z,25.44
2023-03-15T14:04:39.355Z,25.00
2023-03-15T14:07:23.635Z,24.75
2023-03-15T14:10:20.196Z,24.49
2023-03-15T14:12:50.430Z,24.06
2023-03-15T14:15:43.481Z,23.60
2023-03-15T14:18:18.433Z,23.57
2023-03-15T14:20:55.210Z,23.48
2023-03-15T14:23:26.699Z,23.74
2023-03-15T14:26:03.178Z,24.06
2023-03-15T14:28:33.971Z,24.05
2023-03-15T14:31:05.041Z,23.95
2023-03-15T14:33:41.153Z,23.61
2023-03-15T14:36:30.074Z,23.35
2023-03-15T14:39:00.255Z,23.04
2023-03-15T14:41:31.835Z,22.85
2023-03-15T14:44:03.958Z,22.35
2023-03-15T14:46:33.242Z,22.89
2023-03-15T14:49:02.877Z,23.83
2023-03-15T14:51:33.616Z,25.14
2023-03-15T14:54:04.897Z,26.16
2023-03-15T14:56:37.629Z,26.40
2023-03-15T14:59:13.744Z,26.74
2023-03-15T15:01:50.844Z,27.19
2023-03-15T15:04:23.267Z,28.23
2023-03-15T15:06:53.749Z,29.23
2023-03-15T15:09:26.187Z,28.97
2023-03-15T15:11:57.096Z,29.63
2023-03-15T15:14:26.714Z,30.21
2023-03-15T15:16:59.539Z,30.90
2023-03-15T15:19:29.508Z,31.57
2023-03-15T15:21:59.628Z,31.58
2023-03-15T15:24:29.366Z,31.93
2023-03-15T15:26:59.814Z,32.76
2023-03-15T15:29:29.407Z,33.67
2023-03-15T15:31:58.798Z,33.97
2023-03-15T15:34:29.641Z,33.72
2023-03-15T15:37:00.599Z,33.66
2023-03-15T15:39:30.177Z,33.58
2023-03-15T15:42:00.349Z,33.74
2023-03-15T15:44:30.650Z,33.11
2023-03-15T15:47:03.178Z,32.74
2023-03-15T15:49:32.930Z,32.95
2023-03-15T15:52:03.180Z,32.36
2023-03-15T15:54:36.639Z,31.13
2023-03-15T15:57:08.915Z,30.30
2023-03-15T15:59:39.657Z,29.45
2023-03-15T16:02:23.438Z,29.04
2023-03-15T16:04:53.235Z,28.82
2023-03-15T16:07:22.401Z,28.78
2023-03-15T16:09:58.665Z,28.61
2023-03-15T16:12:28.975Z,29.64
2023-03-15T16:14:59.141Z,29.50
2023-03-15T16:17:30.787Z,29.13
2023-03-15T16:20:00.510Z,30.03
2023-03-15T16:22:30.453Z,31.02
2023-03-15T16:25:02.243Z,31.39
2023-03-15T16:27:31.639Z,32.02
2023-03-15T16:30:02.848Z,32.95
2023-03-15T16:32:43.504Z,33.44
2023-03-15T16:35:18.750Z,33.94
2023-03-15T16:37:48.977Z,34.64
2023-03-15T16:40:26.158Z,35.22
2023-03-15T16:42:57.554Z,35.47
2023-03-15T16:45:28.345Z,36.14
2023-03-15T16:47:57.841Z,36.61
2023-03-15T16:50:29.182Z,36.93
2023-03-15T16:53:03.906Z,37.37
2023-03-15T16:55:35.110Z,38.00
2023-03-15T16:58:19.752Z,38.52
2023-03-15T17:00:49.759Z,39.05
2023-03-15T17:03:19.432Z,39.24
2023-03-15T17:05:49.159Z,39.80
2023-03-15T17:08:22.037Z,40.32
2023-03-15T17:10:52.220Z,40.83
2023-03-15T17:13:28.330Z,40.94
2023-03-15T17:15:57.775Z,41.71
2023-03-15T17:18:30.630Z,42.04
2023-03-15T17:21:00.596Z,42.09
2023-03-15T17:23:31.720Z,42.47
2023-03-15T17:26:01.750Z,42.64
2023-03-15T17:28:31.577Z,43.04
2023-03-15T17:31:20.288Z,43.41
2023-03-15T17:33:52.821Z,44.09
2023-03-15T17:36:26.640Z,44.41
2023-03-15T17:38:56.758Z,44.76
2023-03-15T17:41:31.855Z,44.86
2023-03-15T17:44:02.103Z,45.36
2023-03-15T17:46:33.561Z,45.54
2023-03-15T17:49:04.873Z,45.84
2023-03-15T17:51:37.338Z,45.86
2023-03-15T17:54:14.708Z,46.10
2023-03-15T17:56:44.862Z,46.23
2023-03-15T17:59:15.619Z,46.71
2023-03-15T18:01:49.196Z,47.15
2023-03-15T18:04:20.934Z,47.43
2023-03-15T18:06:50.156Z,47.84
2023-03-15T18:09:19.710Z,48.11
2023-03-15T18:11:48.765Z,48.33
2023-03-15T18:14:19.577Z,49.00
2023-03-15T18:16:49.460Z,49.17
2023-03-15T18:19:21.115Z,49.56
2023-03-15T18:21:51.224Z,49.55
2023-03-15T18:24:20.514Z,49.83
2023-03-15T18:26:49.667Z,50.35
2023-03-15T18:29:19.714Z,50.92
2023-03-15T18:31:49.848Z,51.38
2023-03-15T18:34:22.216Z,51.85
2023-03-15T18:36:51.190Z,52.15
2023-03-15T18:39:24.804Z,52.24
2023-03-15T18:41:54.596Z,52.53
2023-03-15T18:44:23.890Z,52.91
2023-03-15T18:46:54.671Z,53.14
2023-03-15T18:49:23.695Z,53.14
2023-03-15T18:51:56.857Z,53.15
2023-03-15T18:54:27.077Z,53.38
2023-03-15T18:56:56.329Z,53.32
2023-03-15T18:59:25.977Z,53.90
2023-03-15T19:01:55.349Z,54.00
2023-03-15T19:04:24.776Z,53.92
2023-03-15T19:06:53.773Z,54.15
2023-03-15T19:09:22.737Z,54.11
2023-03-15T19:11:51.773Z,54.02
2023-03-15T19:14:21.240Z,54.05
2023-03-15T19:16:50.599Z,54.17
2023-03-15T19:19:19.521Z,54.33
2023-03-15T19:21:49.114Z,54.44
2023-03-15T19:24:18.679Z,54.62
2023-03-15T19:26:49.562Z,54.78
2023-03-15T19:29:19.569Z,55.10
2023-03-15T19:31:50.051Z,55.65
2023-03-15T19:34:20.290Z,55.58
2023-03-15T19:36:50.333Z,55.81
2023-03-15T19:39:19.458Z,55.52
2023-03-15T19:41:49.409Z,55.59
2023-03-15T19:44:19.685Z,55.39
2023-03-15T19:46:51.335Z,55.22
2023-03-15T19:49:20.602Z,55.24
2023-03-15T19:51:50.967Z,55.43
2023-03-15T19:54:21.796Z,55.55
2023-03-15T19:56:52.825Z,55.33
2023-03-15T19:59:22.663Z,55.14
2023-03-15T20:01:53.350Z,55.15
2023-03-15T20:04:23.736Z,55.23
2023-03-15T20:06:53.942Z,55.28
2023-03-15T20:09:23.339Z,55.80
2023-03-15T20:11:54.178Z,55.27
2023-03-15T20:14:28.226Z,54.88
2023-03-15T20:16:59.815Z,54.69
2023-03-15T20:19:31.304Z,54.95
2023-03-15T20:22:01.962Z,55.10
2023-03-15T20:24:32.824Z,55.29
2023-03-15T20:27:06.149Z,55.72
2023-03-15T20:29:36.362Z,55.95
2023-03-15T20:32:06.528Z,55.93
2023-03-15T20:34:37.072Z,55.56
2023-03-15T20:37:09.273Z,55.63
2023-03-15T20:39:42.367Z,55.69
2023-03-15T20:42:14.147Z,55.71
2023-03-15T20:44:46.732Z,56.09
2023-03-15T20:47:18.313Z,56.35
2023-03-15T20:49:48.751Z,56.43
2023-03-15T20:52:19.593Z,56.40
2023-03-15T20:54:50.891Z,56.32
2023-03-15T20:57:20.385Z,56.13
2023-03-15T20:59:50.477Z,56.42
2023-03-15T21:02:20.551Z,56.31
2023-03-15T21:04:49.969Z,56.71
2023-03-15T21:07:20.594Z,56.79
2023-03-15T21:09:52.260Z,56.89
2023-03-15T21:12:22.124Z,56.91
2023-03-15T21:14:53.542Z,57.30
2023-03-15T21:17:24.918Z,58.03
2023-03-15T21:19:55.208Z,58.22
2023-03-15T21:22:25.079Z,58.21
2023-03-15T21:24:56.402Z,58.23
2023-03-15T21:27:26.978Z,58.06
2023-03-15T21:29:56.765Z,58.28
2023-03-15T21:32:26.585Z,58.52
2023-03-15T21:34:56.810Z,58.65
2023-03-15T21:37:27.735Z,58.89
2023-03-15T21:39:57.361Z,58.97
2023-03-15T21:42:28.890Z,59.08
2023-03-15T21:44:58.513Z,59.03
2023-03-15T21:47:29.441Z,59.11
2023-03-15T21:50:00.211Z,58.93
2023-03-15T21:52:30.487Z,58.51
2023-03-15T21:55:01.067Z,58.23
2023-03-15T21:57:34.506Z,57.78
2023-03-15T22:00:07.758Z,57.68
2023-03-15T22:02:38.196Z,57.08
2023-03-15T22:05:08.293Z,56.99
2023-03-15T22:07:42.139Z,56.61
2023-03-15T22:10:13.534Z,56.49
2023-03-15T22:12:45.082Z,55.99
2023-03-15T22:15:16.349Z,55.50
2023-03-15T22:17:47.598Z,55.41
2023-03-15T22:20:19.181Z,55.40
2023-03-15T22:22:50.043Z,55.75
2023-03-15T22:25:19.349Z,56.23
2023-03-15T22:27:48.824Z,56.48
2023-03-15T22:30:19.294Z,56.44
2023-03-15T22:32:48.362Z,56.28
2023-03-15T22:35:18.687Z,56.55
2023-03-15T22:37:49.937Z,56.83
2023-03-15T22:40:19.337Z,57.35
2023-03-15T22:42:50.392Z,57.42
2023-03-15T22:45:22.647Z,57.60
2023-03-15T22:47:51.789Z,57.91
2023-03-15T22:50:20.949Z,58.15
2023-03-15T22:52:52.576Z,58.21
2023-03-15T22:55:22.865Z,58.60
2023-03-15T22:57:52.112Z,58.36
2023-03-15T23:00:22.864Z,58.43
2023-03-15T23:02:52.970Z,58.38
2023-03-15T23:05:22.598Z,58.39
2023-03-15T23:07:51.882Z,58.31
2023-03-15T23:10:21.554Z,58.44
2023-03-15T23:12:51.863Z,58.20
2023-03-15T23:15:21.370Z,57.92
2023-03-15T23:17:50.372Z,57.97
2023-03-15T23:20:20.440Z,57.84
2023-03-15T23:22:50.773Z,57.95
2023-03-15T23:25:23.005Z,57.81
2023-03-15T23:27:52.580Z,58.18
2023-03-15T23:30:22.648Z,57.49
2023-03-15T23:32:57.939Z,57.57
2023-03-15T23:35:28.615Z,57.73
2023-03-15T23:37:58.610Z,57.70
2023-03-15T23:40:30.478Z,58.52
2023-03-15T23:42:59.603Z,58.67
2023-03-15T23:45:31.197Z,58.62
2023-03-15T23:48:03.436Z,58.64
2023-03-15T23:50:32.875Z,58.95
2023-03-15T23:53:02.048Z,58.88
2023-03-15T23:55:33.797Z,59.48
2023-03-15T23:58:04.100Z,59.52
